Time;durP1;ratioP1;P1;durP2;ratioP2;P2;SDS_P1;SDS_P2;PMS_P1;PMS_P2;Temp;Humidity;BMP_temperature;BMP_pressure;BME280_temperature;BME280_humidity;BME280_pressure;Samples;Min_cycle;Max_cycle;Signal;HPM_P1;HPM_P2
2022/03/07 00:00:30;;;;;;;6.07;3.17;;;17.90;57.30;;;;;;5018355;28;20131;-58
2022/03/07 00:02:55;;;;;;;5.93;2.85;;;17.90;57.30;;;;;;5018024;28;20033;-58
2022/03/07 00:05:21;;;;;;;6.95;2.80;;;17.80;57.30;;;;;;5018430;28;20025;-58
2022/03/07 00:07:47;;;;;;;5.30;2.75;;;17.80;57.10;;;;;;5013927;28;20040;-58
2022/03/07 00:10:13;;;;;;;6.20;2.45;;;17.80;57.30;;;;;;5023295;28;20033;-59
2022/03/07 00:12:39;;;;;;;5.65;2.75;;;17.80;57.20;;;;;;5019427;28;20168;-58
2022/03/07 00:15:04;;;;;;;7.00;2.80;;;17.80;57.20;;;;;;5018157;28;20514;-58
2022/03/07 00:17:30;;;;;;;5.78;3.03;;;17.80;57.30;;;;;;5017930;28;20533;-58
2022/03/07 00:19:56;;;;;;;6.63;3.03;;;17.70;57.10;;;;;;5014567;28;20505;-58
2022/03/07 00:22:21;;;;;;;5.88;2.85;;;17.70;57.20;;;;;;5013893;28;20391;-58
2022/03/07 00:24:47;;;;;;;6.10;2.80;;;17.70;57.30;;;;;;5018552;28;20387;-57
2022/03/07 00:27:13;;;;;;;6.97;2.88;;;17.70;57.20;;;;;;5017805;28;20332;-58
2022/03/07 00:29:38;;;;;;;7.05;2.67;;;17.70;57.20;;;;;;5019776;28;20032;-58
2022/03/07 00:32:04;;;;;;;7.15;3.05;;;17.60;57.20;;;;;;5028841;28;20026;-58
2022/03/07 00:34:30;;;;;;;4.88;2.80;;;17.60;57.10;;;;;;5013438;28;20029;-58
2022/03/07 00:36:55;;;;;;;5.53;2.65;;;17.60;57.20;;;;;;5017554;28;20021;-58
2022/03/07 00:39:21;;;;;;;5.93;2.78;;;17.60;57.30;;;;;;5017958;28;20053;-58
2022/03/07 00:41:47;;;;;;;5.35;2.70;;;17.60;57.20;;;;;;5017632;28;20030;-58
2022/03/07 00:44:12;;;;;;;5.78;2.80;;;17.50;57.20;;;;;;5016944;28;20025;-58
2022/03/07 00:46:38;;;;;;;5.25;2.83;;;17.50;57.30;;;;;;5012955;28;20030;-58
2022/03/07 00:49:04;;;;;;;5.97;3.00;;;17.50;57.20;;;;;;5029366;28;20029;-58
2022/03/07 00:51:29;;;;;;;6.25;2.70;;;17.50;57.20;;;;;;5019979;28;20510;-58
2022/03/07 00:53:55;;;;;;;5.50;2.88;;;17.40;57.20;;;;;;5017845;28;20029;-58
2022/03/07 00:56:20;;;;;;;5.70;2.90;;;17.40;57.20;;;;;;5017548;28;20033;-58
2022/03/07 00:58:46;;;;;;;6.18;2.72;;;17.40;57.20;;;;;;5013092;28;20414;-58
2022/03/07 01:01:12;;;;;;;5.22;2.63;;;17.40;57.20;;;;;;5014935;28;20029;-57
2022/03/07 01:03:38;;;;;;;5.97;2.90;;;17.40;57.10;;;;;;5017758;28;20034;-58
2022/03/07 01:06:03;;;;;;;6.50;3.08;;;17.40;57.10;;;;;;5017688;28;20026;-58
2022/03/07 01:08:29;;;;;;;6.13;3.03;;;17.30;57.10;;;;;;5020756;28;20033;-58
2022/03/07 01:10:55;;;;;;;6.45;2.80;;;17.30;57.10;;;;;;5013350;28;20060;-58
2022/03/07 01:13:22;;;;;;;6.57;3.00;;;17.30;57.20;;;;;;5013712;28;20443;-58
2022/03/07 01:15:47;;;;;;;6.60;3.05;;;17.30;57.10;;;;;;5028860;28;20029;-57
2022/03/07 01:18:13;;;;;;;6.13;2.80;;;17.30;57.10;;;;;;5021915;28;20434;-58
2022/03/07 01:20:39;;;;;;;5.85;2.60;;;17.30;57.10;;;;;;5017380;28;20037;-58
2022/03/07 01:23:04;;;;;;;5.40;2.88;;;17.30;57.00;;;;;;5014839;28;20030;-58
2022/03/07 01:25:30;;;;;;;5.75;2.80;;;17.20;57.10;;;;;;5024262;28;20398;-58
2022/03/07 01:27:56;;;;;;;5.68;2.97;;;17.30;57.10;;;;;;5017001;28;20487;-57
2022/03/07 01:30:22;;;;;;;5.82;2.88;;;17.20;57.10;;;;;;5024847;28;20033;-58
2022/03/07 01:32:47;;;;;;;5.43;2.90;;;17.20;57.10;;;;;;5025296;28;20037;-58
2022/03/07 01:35:13;;;;;;;4.85;2.70;;;17.20;57.00;;;;;;5016095;28;20017;-58
2022/03/07 01:37:39;;;;;;;5.03;2.80;;;17.20;57.00;;;;;;5012659;28;20071;-58
2022/03/07 01:40:05;;;;;;;5.30;2.83;;;17.10;57.00;;;;;;5015514;28;20050;-57
2022/03/07 01:42:30;;;;;;;6.93;3.03;;;17.10;57.10;;;;;;5020655;28;20036;-58
2022/03/07 01:45:08;;;;;;;5.93;2.85;;;17.10;57.00;;;;;;5023782;28;20022;-58
2022/03/07 01:47:34;;;;;;;5.18;3.05;;;17.10;57.10;;;;;;5017052;28;20040;-58
2022/03/07 01:49:59;;;;;;;8.23;3.40;;;17.10;57.10;;;;;;5013985;28;20030;-58
2022/03/07 01:52:25;;;;;;;5.65;2.75;;;17.10;57.00;;;;;;5012706;28;20022;-58
2022/03/07 01:54:50;;;;;;;7.57;3.47;;;17.10;58.10;;;;;;5017394;28;20026;-58
2022/03/07 01:57:16;;;;;;;6.20;2.90;;;17.10;57.10;;;;;;5016891;28;20025;-58
2022/03/07 01:59:42;;;;;;;6.00;2.95;;;17.00;57.00;;;;;;5016981;28;20088;-58
2022/03/07 02:02:08;;;;;;;4.72;2.60;;;17.00;57.00;;;;;;5022674;28;20460;-58
2022/03/07 02:04:34;;;;;;;6.57;3.00;;;17.00;57.00;;;;;;5011463;28;20022;-58
2022/03/07 02:06:59;;;;;;;5.00;2.92;;;17.00;57.00;;;;;;5023561;28;20030;-58
2022/03/07 02:09:25;;;;;;;5.78;2.97;;;17.00;57.00;;;;;;5034902;28;20034;-58
2022/03/07 02:11:51;;;;;;;6.47;3.10;;;17.00;57.00;;;;;;5014626;28;20038;-57
2022/03/07 02:14:24;;;;;;;6.10;3.13;;;16.90;56.90;;;;;;5028313;28;20037;-58
2022/03/07 02:16:50;;;;;;;5.43;2.90;;;16.90;57.10;;;;;;5012734;28;20052;-58
2022/03/07 02:19:16;;;;;;;5.88;2.95;;;16.90;57.30;;;;;;5027919;28;20033;-58
2022/03/07 02:21:44;;;;;;;6.20;3.20;;;16.90;57.00;;;;;;5017364;28;20521;-58
2022/03/07 02:24:09;;;;;;;6.30;2.95;;;16.90;57.60;;;;;;5020508;28;20021;-57
2022/03/07 02:26:35;;;;;;;6.00;3.10;;;16.90;58.60;;;;;;5020437;28;20035;-58
2022/03/07 02:29:01;;;;;;;6.63;3.00;;;16.90;57.60;;;;;;5017624;28;20490;-58
2022/03/07 02:31:27;;;;;;;4.75;2.75;;;16.90;57.60;;;;;;5016190;28;20026;-58
2022/03/07 02:33:52;;;;;;;6.05;3.10;;;16.90;57.80;;;;;;5031498;28;20498;-58
2022/03/07 02:36:18;;;;;;;5.95;3.05;;;16.80;57.60;;;;;;5023540;28;20079;-58
2022/03/07 02:38:43;;;;;;;5.95;2.95;;;16.80;57.80;;;;;;5020271;28;20034;-58
2022/03/07 02:41:09;;;;;;;5.85;2.97;;;16.80;57.30;;;;;;5017796;28;20120;-58
2022/03/07 02:43:35;;;;;;;6.72;3.22;;;16.80;57.60;;;;;;5015919;28;20049;-59
2022/03/07 02:46:01;;;;;;;5.93;3.20;;;16.80;57.40;;;;;;5017527;28;20029;-58
2022/03/07 02:48:27;;;;;;;7.18;3.03;;;16.70;56.90;;;;;;5020230;28;20083;-58
2022/03/07 02:50:53;;;;;;;5.43;3.05;;;16.80;57.00;;;;;;5021735;28;20522;-58
2022/03/07 02:53:19;;;;;;;6.25;3.10;;;16.70;57.40;;;;;;5019490;28;20113;-58
2022/03/07 02:55:44;;;;;;;6.82;3.50;;;16.70;57.40;;;;;;5015033;28;20159;-58
2022/03/07 02:58:10;;;;;;;6.53;3.40;;;16.70;56.70;;;;;;5049907;28;20521;-58
2022/03/07 03:00:36;;;;;;;7.35;3.80;;;16.70;57.30;;;;;;5019916;28;20563;-58
2022/03/07 03:03:02;;;;;;;5.45;3.10;;;16.70;57.20;;;;;;5019694;28;20030;-58
2022/03/07 03:05:27;;;;;;;5.95;3.40;;;16.70;57.20;;;;;;5019997;28;20037;-58
2022/03/07 03:07:53;;;;;;;6.43;3.50;;;16.70;56.80;;;;;;5015902;28;20013;-58
2022/03/07 03:10:19;;;;;;;7.97;3.78;;;16.70;57.10;;;;;;5016408;28;20041;-58
2022/03/07 03:12:46;;;;;;;6.03;3.40;;;16.60;57.00;;;;;;5019801;28;20163;-57
2022/03/07 03:15:11;;;;;;;5.32;3.08;;;16.70;57.30;;;;;;5019213;28;20022;-58
2022/03/07 03:17:41;;;;;;;6.03;3.45;;;16.60;56.90;;;;;;5019749;28;20026;-58
2022/03/07 03:20:08;;;;;;;6.30;3.42;;;16.60;56.50;;;;;;5016158;28;20040;-58
2022/03/07 03:22:34;;;;;;;6.68;3.60;;;16.60;57.10;;;;;;5014921;28;20033;-58
2022/03/07 03:24:59;;;;;;;6.28;3.40;;;16.60;56.40;;;;;;5018225;28;20026;-58
2022/03/07 03:27:25;;;;;;;5.65;3.10;;;16.60;56.20;;;;;;5019363;28;20154;-58
2022/03/07 03:29:50;;;;;;;5.63;3.42;;;16.60;56.40;;;;;;5022486;28;20026;-58
2022/03/07 03:32:16;;;;;;;5.53;3.20;;;16.60;56.50;;;;;;5030737;28;20036;-58
2022/03/07 03:34:42;;;;;;;6.50;3.42;;;16.50;56.40;;;;;;5014344;28;20033;-57
2022/03/07 03:37:07;;;;;;;6.88;3.47;;;16.50;56.40;;;;;;5017667;28;20065;-58
2022/03/07 03:39:33;;;;;;;6.70;3.50;;;16.50;56.10;;;;;;5018893;28;20041;-58
2022/03/07 03:41:59;;;;;;;6.30;3.60;;;16.50;56.00;;;;;;5019180;28;20033;-58
2022/03/07 03:44:24;;;;;;;6.53;3.40;;;16.50;56.20;;;;;;5019104;28;20117;-58
2022/03/07 03:46:50;;;;;;;5.63;3.35;;;16.50;56.00;;;;;;5014326;28;20060;-58
2022/03/07 03:49:16;;;;;;;7.93;3.78;;;16.50;56.00;;;;;;5016124;28;20022;-57
2022/03/07 03:51:41;;;;;;;6.80;3.53;;;16.40;55.90;;;;;;5018876;28;20466;-58
2022/03/07 03:54:07;;;;;;;7.22;3.88;;;16.40;56.10;;;;;;5024102;28;20025;-58
2022/03/07 03:56:33;;;;;;;7.40;3.80;;;16.40;56.00;;;;;;5028999;28;20367;-58
2022/03/07 03:58:59;;;;;;;7.15;3.70;;;16.40;55.70;;;;;;5015522;28;20032;-58
2022/03/07 04:01:24;;;;;;;7.40;3.80;;;16.40;55.90;;;;;;5016837;28;20052;-58
2022/03/07 04:03:50;;;;;;;5.65;3.55;;;16.40;56.80;;;;;;5027539;28;20022;-58
2022/03/07 04:06:16;;;;;;;7.22;3.55;;;16.40;55.70;;;;;;5026413;28;20038;-59
2022/03/07 04:08:46;;;;;;;6.75;3.70;;;16.40;55.80;;;;;;5024185;28;20477;-58
2022/03/07 04:11:11;;;;;;;7.07;3.95;;;16.40;55.60;;;;;;5029779;28;20390;-58
2022/03/07 04:13:37;;;;;;;6.60;4.00;;;16.40;55.60;;;;;;5013732;28;20018;-57
2022/03/07 04:16:03;;;;;;;7.03;4.03;;;16.30;55.70;;;;;;5017450;28;20030;-58
2022/03/07 04:18:28;;;;;;;6.78;3.88;;;16.30;55.50;;;;;;5020074;28;20034;-58
2022/03/07 04:20:54;;;;;;;7.07;4.05;;;16.30;56.10;;;;;;5025286;28;20683;-58
2022/03/07 04:23:21;;;;;;;6.32;3.72;;;16.30;56.20;;;;;;5017677;28;20113;-58
2022/03/07 04:25:48;;;;;;;7.03;3.90;;;16.30;56.40;;;;;;5013809;28;20021;-58
2022/03/07 04:28:14;;;;;;;8.35;4.05;;;16.30;56.50;;;;;;5016072;28;20026;-58
2022/03/07 04:30:40;;;;;;;7.70;3.70;;;16.30;56.80;;;;;;5018404;28;20116;-58
2022/03/07 04:33:05;;;;;;;7.60;4.07;;;16.30;57.50;;;;;;5023156;28;20116;-59
2022/03/07 04:35:31;;;;;;;7.60;3.92;;;16.30;57.80;;;;;;5028536;28;20035;-58
2022/03/07 04:37:57;;;;;;;7.75;4.03;;;16.30;58.20;;;;;;5014298;28;20033;-58
2022/03/07 04:40:22;;;;;;;8.02;4.30;;;16.30;58.20;;;;;;5013600;28;20046;-58
2022/03/07 04:42:48;;;;;;;9.43;4.22;;;16.30;58.40;;;;;;5018379;28;20076;-58
2022/03/07 04:45:14;;;;;;;6.72;3.83;;;16.30;58.40;;;;;;5017249;28;20022;-58
2022/03/07 04:47:40;;;;;;;10.23;4.50;;;16.30;58.50;;;;;;5019433;28;20021;-58
2022/03/07 04:50:07;;;;;;;8.57;4.18;;;16.30;58.50;;;;;;5029166;28;20030;-59
2022/03/07 04:52:33;;;;;;;8.15;4.00;;;16.30;58.60;;;;;;5013077;28;20021;-58
2022/03/07 04:54:58;;;;;;;7.72;3.97;;;16.30;58.60;;;;;;5017375;28;20390;-58
2022/03/07 04:57:24;;;;;;;6.70;3.83;;;16.20;58.50;;;;;;5017730;28;20036;-59
2022/03/07 04:59:50;;;;;;;7.70;4.07;;;16.20;58.50;;;;;;5017707;28;20446;-58
2022/03/07 05:02:15;;;;;;;7.57;4.18;;;16.20;58.50;;;;;;5016098;28;20037;-59
2022/03/07 05:04:41;;;;;;;7.55;4.35;;;16.20;58.60;;;;;;5029157;28;20033;-58
2022/03/07 05:07:07;;;;;;;7.80;4.20;;;16.20;58.40;;;;;;5015694;28;20026;-58
2022/03/07 05:09:32;;;;;;;6.47;3.90;;;16.20;58.50;;;;;;5017681;28;20521;-58
2022/03/07 05:11:58;;;;;;;8.20;4.13;;;16.20;58.50;;;;;;5017479;28;20026;-58
2022/03/07 05:14:24;;;;;;;7.03;4.10;;;16.20;58.50;;;;;;5017530;28;20029;-58
2022/03/07 05:16:50;;;;;;;7.47;4.00;;;16.20;58.40;;;;;;5013261;28;20029;-58
2022/03/07 05:19:15;;;;;;;8.07;4.00;;;16.20;58.50;;;;;;5014896;28;20034;-58
2022/03/07 05:21:41;;;;;;;8.13;4.60;;;16.10;58.40;;;;;;5026561;28;20091;-58
2022/03/07 05:24:07;;;;;;;7.90;4.10;;;16.10;58.50;;;;;;5022690;28;20394;-58
2022/03/07 05:26:32;;;;;;;7.07;3.75;;;16.10;58.40;;;;;;5017518;28;20506;-58
2022/03/07 05:28:58;;;;;;;7.85;4.65;;;16.10;58.50;;;;;;5012852;28;20028;-58
2022/03/07 05:31:24;;;;;;;7.07;4.07;;;16.10;58.40;;;;;;5013146;28;20022;-58
2022/03/07 05:33:49;;;;;;;7.45;4.28;;;16.10;58.40;;;;;;5017237;28;20025;-58
2022/03/07 05:36:15;;;;;;;7.60;4.40;;;16.10;58.30;;;;;;5022829;28;20025;-60
2022/03/07 05:38:40;;;;;;;7.97;4.40;;;16.10;58.40;;;;;;5026113;28;20091;-58
2022/03/07 05:41:06;;;;;;;8.10;4.15;;;16.00;58.30;;;;;;5014356;28;20053;-58
2022/03/07 05:43:32;;;;;;;7.50;4.45;;;16.10;58.30;;;;;;5012933;28;20054;-58
2022/03/07 05:45:57;;;;;;;7.90;4.25;;;16.00;58.20;;;;;;5016786;28;20099;-58
2022/03/07 05:48:23;;;;;;;7.28;4.30;;;16.10;58.20;;;;;;5017138;28;20036;-58
2022/03/07 05:50:49;;;;;;;9.40;4.60;;;16.10;58.30;;;;;;5016919;28;20057;-58
2022/03/07 05:53:14;;;;;;;8.43;4.40;;;16.00;58.20;;;;;;5018825;28;20038;-58
2022/03/07 05:55:41;;;;;;;7.38;4.18;;;16.00;58.10;;;;;;5012575;28;20029;-58
2022/03/07 05:58:07;;;;;;;7.28;4.22;;;16.00;59.20;;;;;;5023326;28;20085;-58
2022/03/07 06:00:32;;;;;;;8.13;4.40;;;16.00;58.80;;;;;;5022766;28;20080;-58
2022/03/07 06:02:58;;;;;;;7.53;4.57;;;16.00;59.10;;;;;;5021008;28;20720;-59
2022/03/07 06:05:24;;;;;;;8.85;4.22;;;16.00;59.20;;;;;;5020736;28;20091;-58
2022/03/07 06:07:50;;;;;;;7.18;3.97;;;16.00;59.10;;;;;;5016536;28;20417;-58
2022/03/07 06:10:15;;;;;;;7.63;4.40;;;15.90;58.90;;;;;;5024422;28;20481;-59
2022/03/07 06:12:41;;;;;;;7.57;4.45;;;15.90;58.90;;;;;;5021550;28;20033;-58
2022/03/07 06:15:07;;;;;;;7.40;4.43;;;16.00;59.00;;;;;;5020513;28;20439;-58
2022/03/07 06:17:34;;;;;;;7.93;4.70;;;16.00;59.20;;;;;;5018610;28;20021;-58
2022/03/07 06:20:00;;;;;;;8.30;4.55;;;16.00;59.10;;;;;;5029138;28;20032;-58
2022/03/07 06:22:25;;;;;;;9.90;4.97;;;16.00;59.20;;;;;;5026615;28;20662;-58
2022/03/07 06:24:51;;;;;;;9.85;5.00;;;16.00;60.80;;;;;;5027572;28;20029;-58
2022/03/07 06:27:17;;;;;;;9.48;4.57;;;16.00;60.80;;;;;;5023773;28;20494;-59
2022/03/07 06:29:43;;;;;;;11.57;4.90;;;16.00;60.50;;;;;;5020451;28;20030;-58
2022/03/07 06:32:09;;;;;;;10.25;5.00;;;16.00;60.50;;;;;;5019394;28;20147;-59
2022/03/07 06:34:35;;;;;;;12.18;5.13;;;16.00;60.40;;;;;;5013810;28;20105;-59
2022/03/07 06:37:01;;;;;;;9.38;5.00;;;16.00;60.30;;;;;;5019564;28;20545;-59
2022/03/07 06:39:27;;;;;;;8.32;4.82;;;16.00;60.30;;;;;;5020014;28;20041;-59
2022/03/07 06:41:56;;;;;;;9.98;5.13;;;16.00;60.20;;;;;;5031776;28;20034;-59
2022/03/07 06:44:25;;;;;;;11.10;5.13;;;15.90;60.20;;;;;;5019898;28;20061;-59
2022/03/07 06:46:50;;;;;;;9.25;5.05;;;15.90;60.10;;;;;;5015836;28;20452;-59
2022/03/07 06:49:16;;;;;;;8.75;4.90;;;15.90;60.20;;;;;;5016950;28;20022;-59
2022/03/07 06:51:42;;;;;;;7.82;4.82;;;15.90;60.10;;;;;;5020043;28;20042;-59
2022/03/07 06:54:07;;;;;;;11.00;4.90;;;15.90;60.10;;;;;;5020235;28;20021;-59
2022/03/07 06:56:33;;;;;;;8.55;4.70;;;15.90;60.10;;;;;;5028914;28;20037;-59
2022/03/07 06:58:59;;;;;;;10.00;4.70;;;15.90;60.10;;;;;;5016809;28;20017;-60
2022/03/07 07:01:25;;;;;;;8.32;4.47;;;15.90;60.00;;;;;;5030092;28;20107;-59
2022/03/07 07:03:51;;;;;;;10.02;5.30;;;15.80;59.90;;;;;;5030042;28;20030;-59
2022/03/07 07:06:16;;;;;;;9.60;5.60;;;15.90;59.80;;;;;;5029838;28;20095;-60
2022/03/07 07:08:42;;;;;;;8.90;5.10;;;15.80;59.80;;;;;;5027933;28;20033;-59
2022/03/07 07:11:08;;;;;;;9.07;5.18;;;15.80;59.80;;;;;;5017350;28;20426;-59
2022/03/07 07:13:33;;;;;;;9.00;5.10;;;15.80;59.90;;;;;;5015330;28;20045;-59
2022/03/07 07:15:59;;;;;;;9.48;5.00;;;15.80;59.90;;;;;;5034141;28;20627;-59
2022/03/07 07:18:25;;;;;;;8.57;5.25;;;15.80;59.80;;;;;;5025651;28;20400;-59
2022/03/07 07:20:51;;;;;;;10.70;5.25;;;15.80;59.70;;;;;;5019612;28;20212;-59
2022/03/07 07:23:18;;;;;;;8.85;5.05;;;15.70;59.70;;;;;;5025627;28;20603;-60
2022/03/07 07:25:44;;;;;;;9.32;5.60;;;15.70;59.60;;;;;;5014864;28;20026;-59
2022/03/07 07:28:09;;;;;;;10.10;5.32;;;15.70;59.60;;;;;;5032142;28;20021;-59
2022/03/07 07:30:35;;;;;;;13.32;6.13;;;15.70;59.60;;;;;;5020848;28;20406;-59
2022/03/07 07:33:01;;;;;;;9.25;5.10;;;15.70;59.60;;;;;;5019474;28;20541;-59
2022/03/07 07:35:27;;;;;;;9.43;5.20;;;15.70;59.50;;;;;;5022832;28;20029;-59
2022/03/07 07:37:54;;;;;;;8.95;5.22;;;15.70;59.50;;;;;;5030671;28;20036;-59
2022/03/07 07:40:20;;;;;;;8.25;5.20;;;15.70;59.50;;;;;;5031143;28;20042;-59
2022/03/07 07:42:46;;;;;;;8.55;5.60;;;15.60;59.40;;;;;;5019480;28;20030;-59
2022/03/07 07:45:12;;;;;;;8.90;5.45;;;15.70;60.40;;;;;;5018917;28;20026;-59
2022/03/07 07:47:39;;;;;;;9.68;5.53;;;15.70;59.40;;;;;;5019196;28;20197;-59
2022/03/07 07:50:05;;;;;;;10.68;5.60;;;15.60;59.30;;;;;;5016432;28;20033;-59
2022/03/07 07:52:30;;;;;;;8.85;5.47;;;15.60;59.30;;;;;;5029342;28;20034;-59
2022/03/07 07:54:56;;;;;;;8.65;5.35;;;15.60;59.20;;;;;;5018949;28;20025;-60
2022/03/07 07:57:22;;;;;;;9.38;5.50;;;15.60;59.20;;;;;;5018029;28;20048;-60
2022/03/07 07:59:47;;;;;;;8.90;5.47;;;15.60;59.00;;;;;;5016070;28;20025;-59
2022/03/07 08:02:13;;;;;;;9.02;5.32;;;15.60;59.10;;;;;;5030039;28;20101;-60
2022/03/07 08:04:39;;;;;;;9.80;5.55;;;15.60;59.10;;;;;;5014202;28;20052;-59
2022/03/07 08:07:05;;;;;;;8.98;5.50;;;15.60;59.00;;;;;;5017627;28;20056;-59
2022/03/07 08:09:30;;;;;;;8.57;5.20;;;15.60;59.00;;;;;;5018849;28;20045;-59
2022/03/07 08:11:56;;;;;;;8.98;5.32;;;15.60;59.00;;;;;;5018734;28;20502;-59
2022/03/07 08:14:23;;;;;;;9.38;5.25;;;15.60;59.00;;;;;;5023843;28;20342;-59
2022/03/07 08:16:49;;;;;;;8.30;5.22;;;15.60;59.00;;;;;;5029773;28;20482;-59
2022/03/07 08:19:15;;;;;;;9.25;5.35;;;15.60;59.00;;;;;;5015968;28;20025;-59
2022/03/07 08:21:40;;;;;;;8.45;5.10;;;15.60;59.00;;;;;;5017786;28;20490;-59
2022/03/07 08:24:06;;;;;;;7.80;5.07;;;15.50;59.00;;;;;;5018435;28;20125;-59
2022/03/07 08:26:32;;;;;;;9.52;5.45;;;15.50;59.00;;;;;;5013805;28;20030;-59
2022/03/07 08:28:58;;;;;;;8.23;5.35;;;15.50;59.00;;;;;;5029552;28;20032;-60
2022/03/07 08:31:23;;;;;;;8.88;5.30;;;15.50;59.00;;;;;;5028317;28;20056;-59
2022/03/07 08:33:49;;;;;;;9.20;5.40;;;15.50;59.00;;;;;;5018595;28;20026;-59
2022/03/07 08:36:14;;;;;;;9.02;5.57;;;15.50;58.90;;;;;;5018308;28;20069;-59
2022/03/07 08:38:40;;;;;;;8.93;5.32;;;15.50;59.00;;;;;;5018234;28;20108;-59
2022/03/07 08:41:06;;;;;;;8.90;5.80;;;15.50;59.00;;;;;;5015390;28;20080;-59
2022/03/07 08:43:32;;;;;;;9.00;5.55;;;15.50;59.00;;;;;;5013493;28;20494;-59
2022/03/07 08:45:57;;;;;;;8.40;4.85;;;15.50;59.00;;;;;;5017709;28;20033;-59
2022/03/07 08:48:24;;;;;;;8.13;4.95;;;15.50;58.90;;;;;;5018385;28;20022;-59
2022/03/07 08:50:50;;;;;;;8.20;5.25;;;15.50;59.00;;;;;;5018044;28;20041;-59
2022/03/07 08:53:18;;;;;;;8.10;4.90;;;15.50;59.00;;;;;;5016821;28;20025;-60
2022/03/07 08:55:44;;;;;;;8.25;5.45;;;15.50;59.00;;;;;;5013119;28;20037;-59
2022/03/07 08:58:09;;;;;;;8.63;5.35;;;15.50;59.00;;;;;;5015667;28;20034;-59
2022/03/07 09:00:35;;;;;;;7.93;4.60;;;15.50;58.90;;;;;;5017743;28;20046;-59
2022/03/07 09:03:01;;;;;;;7.70;4.82;;;15.50;58.90;;;;;;5019438;28;20022;-59
2022/03/07 09:05:26;;;;;;;7.50;4.82;;;15.50;58.90;;;;;;5028751;28;20036;-59
2022/03/07 09:07:52;;;;;;;9.15;5.30;;;15.50;58.90;;;;;;5013604;28;20022;-59
2022/03/07 09:10:18;;;;;;;9.05;4.90;;;15.50;58.90;;;;;;5014826;28;20022;-59
2022/03/07 09:12:43;;;;;;;7.75;4.68;;;15.50;58.80;;;;;;5016398;28;20029;-59
2022/03/07 09:15:09;;;;;;;8.15;5.10;;;15.50;59.90;;;;;;5017573;28;20068;-59
2022/03/07 09:17:35;;;;;;;7.90;4.70;;;15.50;58.60;;;;;;5017340;28;20505;-59
2022/03/07 09:20:01;;;;;;;6.63;4.30;;;15.50;58.60;;;;;;5025417;28;20474;-59
2022/03/07 09:22:26;;;;;;;8.73;4.78;;;15.50;58.50;;;;;;5012974;28;20038;-59
2022/03/07 09:24:52;;;;;;;9.25;4.90;;;15.50;58.50;;;;;;5017333;28;20018;-59
2022/03/07 09:27:18;;;;;;;7.15;4.38;;;15.50;58.50;;;;;;5016416;28;20100;-59
2022/03/07 09:29:43;;;;;;;7.53;4.47;;;15.50;58.40;;;;;;5017283;28;20028;-59
2022/03/07 09:32:09;;;;;;;8.15;4.65;;;15.50;58.40;;;;;;5015187;28;20053;-59
2022/03/07 09:34:35;;;;;;;6.85;4.45;;;15.50;58.40;;;;;;5013718;28;20029;-59
2022/03/07 09:37:01;;;;;;;7.63;4.80;;;15.50;58.30;;;;;;5016698;28;20112;-59
2022/03/07 09:39:27;;;;;;;8.15;4.60;;;15.50;58.30;;;;;;5017048;28;20129;-59
2022/03/07 09:41:54;;;;;;;7.93;4.78;;;15.50;58.20;;;;;;5016998;28;20049;-59
2022/03/07 09:44:20;;;;;;;7.93;4.07;;;15.50;58.20;;;;;;5016696;28;20034;-59
2022/03/07 09:46:45;;;;;;;7.10;4.47;;;15.50;58.10;;;;;;5012689;28;20030;-59
2022/03/07 09:49:11;;;;;;;7.60;4.60;;;15.50;58.10;;;;;;5047097;28;20030;-59
2022/03/07 09:51:37;;;;;;;6.95;4.47;;;15.50;58.00;;;;;;5024224;28;20109;-60
2022/03/07 09:54:02;;;;;;;7.88;4.70;;;15.50;58.00;;;;;;5023063;28;20845;-59
2022/03/07 09:56:28;;;;;;;7.72;4.85;;;15.60;58.00;;;;;;5016823;28;20032;-59
2022/03/07 09:58:53;;;;;;;8.02;4.45;;;15.60;57.80;;;;;;5013014;28;20030;-59
2022/03/07 10:01:19;;;;;;;6.93;4.38;;;15.60;57.70;;;;;;5013818;28;20038;-60
2022/03/07 10:03:46;;;;;;;8.00;4.72;;;15.60;57.70;;;;;;5016987;28;20034;-59
2022/03/07 10:06:19;;;;;;;7.60;4.55;;;15.60;57.60;;;;;;5017008;28;20030;-59
2022/03/07 10:08:51;;;;;;;6.97;4.30;;;15.60;57.50;;;;;;5020525;28;20550;-59
2022/03/07 10:11:17;;;;;;;7.47;4.65;;;15.60;57.40;;;;;;5015743;28;20025;-59
2022/03/07 10:13:52;;;;;;;7.80;4.70;;;15.60;57.40;;;;;;5012170;28;20397;-59
2022/03/07 10:16:20;;;;;;;;;;;15.60;57.30;;;;;;5057671;28;20022;-59
2022/03/07 10:18:52;;;;;;;8.55;4.57;;;15.60;57.20;;;;;;5016773;28;20278;-60
2022/03/07 10:21:25;;;;;;;7.75;5.07;;;15.60;57.10;;;;;;5016820;28;20498;-59
2022/03/07 10:23:56;;;;;;;7.97;4.88;;;15.60;57.10;;;;;;5018090;28;20032;-59
2022/03/07 10:26:22;;;;;;;8.90;5.25;;;15.70;57.00;;;;;;5027871;28;20025;-59
2022/03/07 10:28:55;;;;;;;7.75;4.90;;;15.60;56.90;;;;;;5012249;28;20037;-59
2022/03/07 10:31:21;;;;;;;8.15;5.20;;;15.70;56.90;;;;;;5025538;28;20061;-59
2022/03/07 10:33:47;;;;;;;8.20;5.13;;;15.70;56.90;;;;;;5027704;28;20068;-59
2022/03/07 10:36:12;;;;;;;7.90;5.25;;;15.70;56.90;;;;;;5021408;28;20118;-59
2022/03/07 10:38:38;;;;;;;8.23;5.10;;;15.70;56.80;;;;;;5016673;28;20112;-59
2022/03/07 10:41:04;;;;;;;8.50;5.50;;;15.70;56.60;;;;;;5023176;28;20045;-59
2022/03/07 10:43:30;;;;;;;7.43;5.15;;;15.70;56.60;;;;;;5013187;28;20030;-59
2022/03/07 10:46:00;;;;;;;7.78;4.95;;;15.70;56.60;;;;;;5019993;28;20076;-59
2022/03/07 10:48:28;;;;;;;7.95;5.20;;;15.70;56.50;;;;;;5020204;28;20029;-59
2022/03/07 10:50:56;;;;;;;8.38;5.10;;;15.70;56.40;;;;;;5020358;28;20467;-59
2022/03/07 10:53:21;;;;;;;7.43;4.85;;;15.70;56.40;;;;;;5020191;28;20474;-59
2022/03/07 10:55:55;;;;;;;8.40;5.30;;;15.80;56.40;;;;;;5014764;28;20029;-59
2022/03/07 10:58:20;;;;;;;7.43;5.07;;;15.80;56.40;;;;;;5016873;28;20037;-59
2022/03/07 11:00:53;;;;;;;7.70;5.00;;;15.80;56.30;;;;;;5020279;28;20042;-59
2022/03/07 11:03:20;;;;;;;8.95;5.20;;;15.80;56.20;;;;;;5019984;28;20030;-59
2022/03/07 11:05:46;;;;;;;8.25;5.40;;;15.80;56.20;;;;;;5019916;28;20076;-59
2022/03/07 11:08:15;;;;;;;7.85;5.05;;;15.90;56.20;;;;;;5018244;28;20029;-59
2022/03/07 11:10:45;;;;;;;8.10;5.57;;;15.90;56.10;;;;;;5015153;28;20045;-60
2022/03/07 11:13:15;;;;;;;8.35;5.20;;;15.90;56.00;;;;;;5048603;28;20024;-59
2022/03/07 11:15:41;;;;;;;8.05;5.20;;;15.90;56.00;;;;;;5019814;28;20479;-60
2022/03/07 11:18:08;;;;;;;7.50;5.38;;;15.90;55.90;;;;;;5025399;28;20108;-59
2022/03/07 11:20:34;;;;;;;7.88;5.38;;;16.00;55.90;;;;;;5028289;28;20037;-59
2022/03/07 11:23:00;;;;;;;7.22;5.10;;;16.00;55.90;;;;;;5015013;28;20099;-59
2022/03/07 11:25:27;;;;;;;9.02;5.50;;;16.00;55.80;;;;;;5014118;28;20083;-59
2022/03/07 11:27:54;;;;;;;7.88;5.15;;;16.00;55.80;;;;;;5030713;28;20112;-59
2022/03/07 11:30:21;;;;;;;9.18;5.40;;;16.00;55.70;;;;;;5021710;28;20482;-59
2022/03/07 11:32:49;;;;;;;8.10;5.25;;;16.00;55.70;;;;;;5020680;28;20605;-59
2022/03/07 11:35:15;;;;;;;8.68;5.60;;;16.10;55.80;;;;;;5030752;28;20117;-59
2022/03/07 11:37:41;;;;;;;8.05;5.50;;;16.00;55.70;;;;;;5014306;28;20462;-59
2022/03/07 11:40:23;;;;;;;8.02;5.45;;;16.10;55.70;;;;;;5017449;28;20115;-59
2022/03/07 11:42:49;;;;;;;7.70;5.35;;;16.00;55.70;;;;;;5017959;28;20480;-59
2022/03/07 11:45:18;;;;;;;7.88;5.50;;;16.00;55.70;;;;;;5019309;28;20410;-59
2022/03/07 11:47:44;;;;;;;8.18;5.47;;;16.10;55.60;;;;;;5019040;28;20124;-59
2022/03/07 11:50:10;;;;;;;7.82;5.32;;;16.00;55.60;;;;;;5017477;28;20033;-59
2022/03/07 11:52:36;;;;;;;7.85;5.30;;;16.00;55.60;;;;;;5014348;28;20030;-59
2022/03/07 11:55:04;;;;;;;7.45;5.32;;;16.10;55.60;;;;;;5015761;28;20049;-60
2022/03/07 11:57:58;;;;;;;8.48;5.45;;;16.00;55.50;;;;;;5019055;28;20029;-59
2022/03/07 12:00:27;;;;;;;8.20;5.82;;;16.00;55.60;;;;;;5021386;28;20034;-59
2022/03/07 12:02:54;;;;;;;7.63;5.30;;;16.00;55.50;;;;;;5018902;28;20056;-59
2022/03/07 12:05:26;;;;;;;8.13;5.43;;;16.10;55.60;;;;;;5018412;28;20036;-59
2022/03/07 12:07:52;;;;;;;8.73;5.78;;;16.10;55.50;;;;;;5014353;28;20048;-59
2022/03/07 12:10:19;;;;;;;8.57;5.75;;;16.00;55.40;;;;;;5027190;28;20446;-60
2022/03/07 12:12:44;;;;;;;8.30;5.78;;;16.00;55.40;;;;;;5018832;28;20403;-59
2022/03/07 12:15:11;;;;;;;8.38;5.70;;;16.00;55.30;;;;;;5019492;28;20021;-59
2022/03/07 12:17:37;;;;;;;8.27;5.97;;;16.00;55.40;;;;;;5028096;28;20442;-59
2022/03/07 12:20:03;;;;;;;8.32;5.55;;;16.10;55.50;;;;;;5015651;28;20096;-59
2022/03/07 12:22:30;;;;;;;7.70;5.72;;;16.10;55.30;;;;;;5013689;28;20030;-60
2022/03/07 12:25:06;;;;;;;8.93;5.72;;;16.10;55.20;;;;;;5018255;28;20018;-59
2022/03/07 12:27:37;;;;;;;8.70;6.00;;;16.10;55.20;;;;;;5018379;28;20060;-59
2022/03/07 12:30:05;;;;;;;8.57;6.00;;;16.20;55.20;;;;;;5018262;28;20483;-59
2022/03/07 12:32:31;;;;;;;8.35;5.85;;;16.30;55.10;;;;;;5022788;28;20036;-59
2022/03/07 12:34:56;;;;;;;8.93;5.65;;;16.30;55.00;;;;;;5014453;28;20029;-59
2022/03/07 12:37:22;;;;;;;8.18;5.90;;;16.30;55.00;;;;;;5014457;28;20037;-59
2022/03/07 12:39:58;;;;;;;7.72;5.43;;;16.30;54.90;;;;;;5029664;28;20038;-60